Time;durP1;ratioP1;P1;durP2;ratioP2;P2;SDS_P1;SDS_P2;PMS_P1;PMS_P2;Temp;Humidity;BMP_temperature;BMP_pressure;BME280_temperature;BME280_humidity;BME280_pressure;Samples;Min_cycle;Max_cycle;Signal;HPM_P1;HPM_P2
2024/02/26 00:02:09;;;;;;;1.45;0.70;;;;;;;;;;12486642;23;20090;-73
2024/02/26 00:07:13;;;;;;;0.80;0.60;;;;;;;;;;12486366;23;20122;-73
2024/02/26 00:12:17;;;;;;;0.88;0.50;;;;;;;;;;12486347;23;20090;-73
2024/02/26 00:17:21;;;;;;;0.68;0.50;;;;;;;;;;12482216;23;20526;-73
2024/02/26 00:22:24;;;;;;;0.65;0.50;;;;;;;;;;12485109;23;20452;-73
2024/02/26 00:27:29;;;;;;;0.90;0.60;;;;;;;;;;12485081;23;20102;-73
2024/02/26 00:32:32;;;;;;;1.90;0.52;;;;;;;;;;12482007;23;20391;-74
2024/02/26 00:37:35;;;;;;;0.57;0.47;;;;;;;;;;12485411;23;20046;-73
2024/02/26 00:42:45;;;;;;;0.40;0.40;;;;;;;;;;12490121;23;20399;-73
2024/02/26 00:47:48;;;;;;;0.63;0.40;;;;;;;;;;12486813;23;20657;-74
2024/02/26 00:52:52;;;;;;;0.40;0.40;;;;;;;;;;12483975;23;20023;-73
2024/02/26 00:57:56;;;;;;;0.63;0.52;;;;;;;;;;12484783;23;20114;-73
2024/02/26 01:03:00;;;;;;;0.57;0.50;;;;;;;;;;12502800;23;20049;-73
2024/02/26 01:08:03;;;;;;;0.60;0.60;;;;;;;;;;12481028;23;20031;-73
2024/02/26 01:13:08;;;;;;;0.60;0.60;;;;;;;;;;12502026;23;20047;-73
2024/02/26 01:18:12;;;;;;;0.50;0.50;;;;;;;;;;12500820;23;20023;-73
2024/02/26 01:23:16;;;;;;;0.70;0.70;;;;;;;;;;12500914;23;20501;-73
2024/02/26 01:28:21;;;;;;;0.40;0.40;;;;;;;;;;12500425;23;20031;-73
2024/02/26 01:33:24;;;;;;;0.47;0.47;;;;;;;;;;12500068;23;20486;-73
2024/02/26 01:38:27;;;;;;;1.15;0.40;;;;;;;;;;12499539;23;20107;-73
2024/02/26 01:43:31;;;;;;;0.50;0.50;;;;;;;;;;12480204;23;20030;-73
2024/02/26 01:48:35;;;;;;;1.00;0.40;;;;;;;;;;12499220;23;20091;-73
2024/02/26 01:53:39;;;;;;;0.40;0.40;;;;;;;;;;12482689;23;20090;-73
2024/02/26 01:58:44;;;;;;;0.65;0.57;;;;;;;;;;12499840;23;20023;-73
2024/02/26 02:03:47;;;;;;;0.30;0.30;;;;;;;;;;12483626;23;20110;-73
2024/02/26 02:08:51;;;;;;;0.20;0.20;;;;;;;;;;12498292;23;20226;-73
2024/02/26 02:13:56;;;;;;;0.40;0.40;;;;;;;;;;12498242;23;20127;-73
2024/02/26 02:19:00;;;;;;;0.40;0.40;;;;;;;;;;12497004;23;20037;-73
2024/02/26 02:24:05;;;;;;;1.13;0.57;;;;;;;;;;12496733;23;20027;-73
2024/02/26 02:29:09;;;;;;;1.58;0.82;;;;;;;;;;12481236;23;20034;-73
2024/02/26 02:34:13;;;;;;;0.80;0.70;;;;;;;;;;12496033;23;20533;-73
2024/02/26 02:39:18;;;;;;;1.13;0.65;;;;;;;;;;12479865;23;20141;-73
2024/02/26 02:44:22;;;;;;;1.40;0.70;;;;;;;;;;12495253;23;20558;-73
2024/02/26 02:49:25;;;;;;;1.17;0.80;;;;;;;;;;12495200;23;20360;-73
2024/02/26 02:54:29;;;;;;;2.25;0.80;;;;;;;;;;12490389;23;20080;-73
2024/02/26 02:59:33;;;;;;;1.60;1.00;;;;;;;;;;12493626;23;20047;-73
2024/02/26 03:04:36;;;;;;;1.27;1.00;;;;;;;;;;12493607;23;20688;-73
2024/02/26 03:09:41;;;;;;;3.33;1.10;;;;;;;;;;12478867;23;20038;-73
2024/02/26 03:14:44;;;;;;;1.42;0.90;;;;;;;;;;12481463;23;20106;-73
2024/02/26 03:19:53;;;;;;;0.80;0.80;;;;;;;;;;12492900;23;20054;-73
2024/02/26 03:24:58;;;;;;;0.98;0.90;;;;;;;;;;12480421;23;20026;-73
2024/02/26 03:30:01;;;;;;;0.90;0.75;;;;;;;;;;12491928;23;20106;-76
2024/02/26 03:35:07;;;;;;;0.85;0.82;;;;;;;;;;12491820;23;20078;-73
2024/02/26 03:40:14;;;;;;;0.77;0.70;;;;;;;;;;12480435;23;20394;-74
2024/02/26 03:45:17;;;;;;;1.05;0.80;;;;;;;;;;12490813;23;20106;-74
2024/02/26 03:50:21;;;;;;;0.95;0.60;;;;;;;;;;12490246;23;20079;-74
2024/02/26 03:55:25;;;;;;;1.45;1.00;;;;;;;;;;12490524;23;20106;-74
2024/02/26 04:00:30;;;;;;;1.75;0.82;;;;;;;;;;12492934;23;20509;-74
2024/02/26 04:05:33;;;;;;;0.63;0.63;;;;;;;;;;12492899;23;20034;-73
2024/02/26 04:10:39;;;;;;;0.88;0.60;;;;;;;;;;12492977;23;20450;-73
2024/02/26 04:15:42;;;;;;;2.25;0.80;;;;;;;;;;12492598;23;20110;-73
2024/02/26 04:20:45;;;;;;;0.80;0.60;;;;;;;;;;12493809;23;20428;-73
2024/02/26 04:25:50;;;;;;;1.25;0.73;;;;;;;;;;12486571;23;20403;-73
2024/02/26 04:30:53;;;;;;;0.60;0.60;;;;;;;;;;12486350;23;20090;-73
2024/02/26 04:35:57;;;;;;;2.15;0.88;;;;;;;;;;12492872;23;20106;-73
2024/02/26 04:41:01;;;;;;;0.40;0.40;;;;;;;;;;12491339;23;20098;-73
2024/02/26 04:46:05;;;;;;;0.70;0.70;;;;;;;;;;12484156;23;20487;-73
2024/02/26 04:51:08;;;;;;;1.23;0.75;;;;;;;;;;12483038;23;20106;-73
2024/02/26 04:56:13;;;;;;;1.48;0.80;;;;;;;;;;12505213;23;20123;-73
2024/02/26 05:01:17;;;;;;;0.82;0.70;;;;;;;;;;12480876;23;20031;-74
2024/02/26 05:06:20;;;;;;;1.10;0.90;;;;;;;;;;12487924;23;20030;-73
2024/02/26 05:11:25;;;;;;;0.73;0.68;;;;;;;;;;12488338;23;20082;-73
2024/02/26 05:23:03;;;;;;;1.02;0.80;;;;;;;;;;12421168;23;20047;-74
2024/02/26 05:28:46;;;;;;;;;;;;;;;;;;;;;
2024/02/26 05:34:13;;;;;;;;;;;;;;;;;;;;;
2024/02/26 05:39:21;;;;;;;0.60;0.50;;;;;;;;;;12437159;23;20032;-74
2024/02/26 05:44:27;;;;;;;0.60;0.55;;;;;;;;;;12424859;23;20030;-74
2024/02/26 05:49:31;;;;;;;;;;;;;;;;;;12436687;23;20380;-74
2024/02/26 05:54:34;;;;;;;0.90;0.80;;;;;;;;;;12418823;23;19949;-74
2024/02/26 05:59:38;;;;;;;0.70;0.70;;;;;;;;;;12424190;23;20099;-74
2024/02/26 06:04:42;;;;;;;0.60;0.60;;;;;;;;;;12435854;23;20420;-75
2024/02/26 06:09:45;;;;;;;2.72;0.85;;;;;;;;;;12435542;23;20511;-74
2024/02/26 06:14:50;;;;;;;1.15;0.70;;;;;;;;;;12435836;23;20024;-74
2024/02/26 06:19:53;;;;;;;0.75;0.52;;;;;;;;;;12423814;23;20114;-75
2024/02/26 06:24:56;;;;;;;0.80;0.80;;;;;;;;;;12421660;23;20115;-74
2024/02/26 06:30:01;;;;;;;0.73;0.70;;;;;;;;;;12434367;23;20111;-74
2024/02/26 06:35:06;;;;;;;0.85;0.73;;;;;;;;;;12421582;23;20337;-74
2024/02/26 06:40:10;;;;;;;0.60;0.60;;;;;;;;;;12432602;23;20024;-74
2024/02/26 06:45:15;;;;;;;1.58;0.90;;;;;;;;;;12433221;23;20098;-74
2024/02/26 06:50:19;;;;;;;1.08;0.80;;;;;;;;;;12436518;23;20076;-74
2024/02/26 06:55:22;;;;;;;0.82;0.82;;;;;;;;;;12446279;23;20062;-74
2024/02/26 07:00:26;;;;;;;1.00;0.80;;;;;;;;;;12431772;23;20126;-74
2024/02/26 07:05:30;;;;;;;1.65;0.98;;;;;;;;;;12423349;23;20034;-74
2024/02/26 07:10:33;;;;;;;0.70;0.70;;;;;;;;;;12431107;23;20055;-74
2024/02/26 07:15:38;;;;;;;0.82;0.80;;;;;;;;;;12430643;23;20039;-74
2024/02/26 07:20:41;;;;;;;1.50;1.00;;;;;;;;;;12429241;23;20027;-74
2024/02/26 07:25:46;;;;;;;1.50;0.90;;;;;;;;;;12429628;23;20042;-74
2024/02/26 07:30:51;;;;;;;1.70;1.07;;;;;;;;;;12432149;23;20035;-74
2024/02/26 07:35:55;;;;;;;1.95;0.82;;;;;;;;;;12426051;23;20030;-74
2024/02/26 07:40:58;;;;;;;0.60;0.60;;;;;;;;;;12433389;23;20028;-74
2024/02/26 07:46:03;;;;;;;0.82;0.60;;;;;;;;;;12432664;23;20031;-74
2024/02/26 07:51:06;;;;;;;0.80;0.80;;;;;;;;;;12432784;23;20564;-74
2024/02/26 07:56:10;;;;;;;0.68;0.68;;;;;;;;;;12431803;23;20045;-74
2024/02/26 08:01:16;;;;;;;0.80;0.80;;;;;;;;;;12431114;23;20047;-74
2024/02/26 08:06:19;;;;;;;0.80;0.80;;;;;;;;;;12432245;23;20024;-74
2024/02/26 08:11:22;;;;;;;1.38;0.98;;;;;;;;;;12431390;23;20060;-74
2024/02/26 08:16:27;;;;;;;0.60;0.60;;;;;;;;;;12430980;23;20155;-75
2024/02/26 08:21:30;;;;;;;1.58;0.80;;;;;;;;;;12430572;23;20087;-74
2024/02/26 08:26:33;;;;;;;0.50;0.50;;;;;;;;;;12429847;23;20110;-75
2024/02/26 08:31:38;;;;;;;1.35;0.90;;;;;;;;;;12428442;23;20107;-74
2024/02/26 08:36:43;;;;;;;0.68;0.60;;;;;;;;;;12423207;23;20480;-75
2024/02/26 08:41:46;;;;;;;0.70;0.65;;;;;;;;;;12428509;23;20400;-74
2024/02/26 08:46:51;;;;;;;0.98;0.93;;;;;;;;;;12428120;23;20034;-74
2024/02/26 08:51:54;;;;;;;0.80;0.80;;;;;;;;;;12427779;23;20106;-74
2024/02/26 08:56:57;;;;;;;1.15;0.93;;;;;;;;;;12423572;23;20103;-74
2024/02/26 09:02:02;;;;;;;0.95;0.90;;;;;;;;;;12445543;23;20028;-74
2024/02/26 09:07:06;;;;;;;1.00;0.90;;;;;;;;;;12426182;23;20020;-74
2024/02/26 09:12:09;;;;;;;1.00;0.90;;;;;;;;;;12426217;23;20035;-74
2024/02/26 09:17:14;;;;;;;1.45;1.13;;;;;;;;;;12422836;23;20027;-74
2024/02/26 09:22:17;;;;;;;1.02;0.93;;;;;;;;;;12425173;23;20110;-74
2024/02/26 09:27:21;;;;;;;0.90;0.88;;;;;;;;;;12447825;23;20034;-82
2024/02/26 09:32:27;;;;;;;0.77;0.73;;;;;;;;;;12468273;23;20023;-82
2024/02/26 09:37:30;;;;;;;0.70;0.70;;;;;;;;;;12458989;23;20463;-82
2024/02/26 09:42:35;;;;;;;0.93;0.80;;;;;;;;;;12469746;23;20023;-82
2024/02/26 09:47:40;;;;;;;0.80;0.77;;;;;;;;;;12468063;23;20340;-82
2024/02/26 09:52:44;;;;;;;1.15;0.50;;;;;;;;;;12458475;23;20031;-82
2024/02/26 09:57:51;;;;;;;0.80;0.77;;;;;;;;;;12458365;23;20028;-82
2024/02/26 10:03:05;;;;;;;0.70;0.70;;;;;;;;;;12458936;23;20027;-82
2024/02/26 10:08:41;;;;;;;1.15;0.93;;;;;;;;;;12464641;23;20038;-83
2024/02/26 10:13:47;;;;;;;0.82;0.82;;;;;;;;;;12464737;23;20028;-83
2024/02/26 10:19:29;;;;;;;1.20;0.90;;;;;;;;;;12492177;23;20875;-84
2024/02/26 10:24:34;;;;;;;0.70;0.70;;;;;;;;;;12464537;23;20027;-83
2024/02/26 10:29:37;;;;;;;1.55;0.93;;;;;;;;;;12461737;23;20035;-84
2024/02/26 10:34:45;;;;;;;1.47;1.10;;;;;;;;;;12463316;23;20077;-83
2024/02/26 10:39:49;;;;;;;1.23;1.00;;;;;;;;;;12460224;23;20031;-83
2024/02/26 10:44:52;;;;;;;1.40;1.00;;;;;;;;;;12487046;23;20027;-84
2024/02/26 10:49:57;;;;;;;0.85;0.85;;;;;;;;;;12474162;23;20036;-83
2024/02/26 10:55:03;;;;;;;1.30;1.02;;;;;;;;;;12475754;23;20510;-83
2024/02/26 11:00:10;;;;;;;1.58;1.13;;;;;;;;;;12445432;23;20130;-84
2024/02/26 11:05:19;;;;;;;1.10;0.90;;;;;;;;;;12464811;23;20122;-82
2024/02/26 11:10:24;;;;;;;2.50;1.20;;;;;;;;;;12465460;23;20027;-83
2024/02/26 11:15:29;;;;;;;0.70;0.70;;;;;;;;;;12431830;23;20681;-74
2024/02/26 11:20:35;;;;;;;1.17;0.90;;;;;;;;;;12375143;23;20040;-74
2024/02/26 11:25:40;;;;;;;0.80;0.80;;;;;;;;;;12368551;23;20035;-74
2024/02/26 11:30:50;;;;;;;1.20;1.10;;;;;;;;;;12373649;23;20596;-74
2024/02/26 11:35:55;;;;;;;1.30;1.10;;;;;;;;;;12375462;23;20084;-74
2024/02/26 11:41:00;;;;;;;1.20;1.10;;;;;;;;;;12367834;23;20088;-74
2024/02/26 11:46:04;;;;;;;1.70;1.23;;;;;;;;;;12365876;24;20743;-74
2024/02/26 11:51:10;;;;;;;1.83;1.42;;;;;;;;;;12373280;23;20539;-74
2024/02/26 11:56:21;;;;;;;2.30;1.77;;;;;;;;;;12367884;23;20082;-74
2024/02/26 12:01:44;;;;;;;2.00;1.80;;;;;;;;;;12373101;23;20511;-74
2024/02/26 12:06:52;;;;;;;1.42;1.25;;;;;;;;;;12371176;23;20357;-74
2024/02/26 12:11:57;;;;;;;2.38;1.58;;;;;;;;;;12370702;23;20496;-74
2024/02/26 12:17:00;;;;;;;1.75;1.38;;;;;;;;;;12370641;23;20027;-74
2024/02/26 12:22:09;;;;;;;2.25;1.70;;;;;;;;;;12377242;23;20092;-75
2024/02/26 12:27:12;;;;;;;2.10;1.40;;;;;;;;;;12373256;23;20480;-74
2024/02/26 12:32:16;;;;;;;2.40;1.83;;;;;;;;;;12368762;23;20036;-74
2024/02/26 12:37:21;;;;;;;2.10;1.73;;;;;;;;;;12369187;23;20020;-74
2024/02/26 12:42:24;;;;;;;2.80;1.73;;;;;;;;;;12368865;23;20036;-74
2024/02/26 12:47:28;;;;;;;1.92;1.50;;;;;;;;;;12366434;23;20028;-74
2024/02/26 12:52:33;;;;;;;1.27;1.17;;;;;;;;;;12365481;23;20054;-74
2024/02/26 12:57:38;;;;;;;3.20;1.10;;;;;;;;;;12367754;23;20473;-74
2024/02/26 13:02:44;;;;;;;1.33;1.10;;;;;;;;;;12367179;23;20537;-74
2024/02/26 13:07:49;;;;;;;1.35;0.90;;;;;;;;;;12366993;23;20078;-74
2024/02/26 13:12:53;;;;;;;2.20;1.60;;;;;;;;;;12364282;23;20453;-74
2024/02/26 13:17:56;;;;;;;1.40;1.30;;;;;;;;;;12366297;23;20035;-74
2024/02/26 13:23:05;;;;;;;2.63;1.60;;;;;;;;;;12387465;23;20024;-74
2024/02/26 13:28:10;;;;;;;2.28;1.65;;;;;;;;;;12383480;23;22939;-74
2024/02/26 13:33:14;;;;;;;2.88;1.77;;;;;;;;;;12383724;23;20020;-74
2024/02/26 13:38:19;;;;;;;3.25;2.13;;;;;;;;;;12363190;23;20084;-74
2024/02/26 13:43:25;;;;;;;4.88;3.08;;;;;;;;;;12383158;23;20524;-74
2024/02/26 13:48:29;;;;;;;2.58;2.10;;;;;;;;;;12366808;23;20487;-74
2024/02/26 13:53:34;;;;;;;2.13;1.88;;;;;;;;;;12364072;23;20027;-74
2024/02/26 13:58:38;;;;;;;2.42;1.83;;;;;;;;;;12364593;23;20028;-74
2024/02/26 14:03:41;;;;;;;2.75;1.83;;;;;;;;;;12380786;23;20046;-74
2024/02/26 14:08:46;;;;;;;3.17;2.30;;;;;;;;;;12364650;23;20028;-74
2024/02/26 14:13:49;;;;;;;2.72;1.90;;;;;;;;;;12379973;23;20070;-74
2024/02/26 14:18:53;;;;;;;2.63;1.75;;;;;;;;;;12380067;23;20028;-74
2024/02/26 14:23:58;;;;;;;2.00;1.80;;;;;;;;;;12379674;23;20119;-74
2024/02/26 14:29:01;;;;;;;2.63;2.00;;;;;;;;;;12379245;23;20032;-74
2024/02/26 14:34:04;;;;;;;2.10;1.90;;;;;;;;;;12379078;23;20028;-74
2024/02/26 14:39:10;;;;;;;2.80;2.10;;;;;;;;;;12378395;23;20726;-74
2024/02/26 14:44:14;;;;;;;2.47;1.77;;;;;;;;;;12378485;23;20024;-75
2024/02/26 14:49:17;;;;;;;3.10;2.20;;;;;;;;;;12386134;23;20032;-74
2024/02/26 14:54:22;;;;;;;4.55;2.80;;;;;;;;;;12377767;23;20032;-74
2024/02/26 14:59:25;;;;;;;2.72;1.90;;;;;;;;;;12377536;23;20510;-74
2024/02/26 15:04:29;;;;;;;2.83;1.90;;;;;;;;;;12377583;23;20112;-74
2024/02/26 15:09:34;;;;;;;2.50;1.65;;;;;;;;;;12374458;23;20024;-74
2024/02/26 15:14:38;;;;;;;2.20;1.52;;;;;;;;;;12376694;23;20036;-74
2024/02/26 15:19:41;;;;;;;3.22;1.60;;;;;;;;;;12376963;23;20080;-74
2024/02/26 15:24:47;;;;;;;2.53;1.80;;;;;;;;;;12375853;23;20028;-74
2024/02/26 15:29:56;;;;;;;2.13;1.33;;;;;;;;;;12376497;23;20092;-74
2024/02/26 15:34:59;;;;;;;1.98;1.52;;;;;;;;;;12365379;23;20480;-74
2024/02/26 15:40:07;;;;;;;2.47;1.80;;;;;;;;;;12385474;23;20417;-74
2024/02/26 15:45:11;;;;;;;2.20;1.73;;;;;;;;;;12374555;23;20032;-74
2024/02/26 15:50:14;;;;;;;2.42;1.70;;;;;;;;;;12374426;23;20060;-74
2024/02/26 15:55:19;;;;;;;2.70;1.80;;;;;;;;;;12377490;23;20063;-74
2024/02/26 16:00:23;;;;;;;2.15;1.80;;;;;;;;;;12377031;23;20056;-74
2024/02/26 16:05:26;;;;;;;1.92;1.45;;;;;;;;;;12378749;23;20106;-74
2024/02/26 16:10:32;;;;;;;1.98;1.45;;;;;;;;;;12380102;23;20107;-74
2024/02/26 16:15:36;;;;;;;1.60;1.35;;;;;;;;;;12378651;23;20048;-74
2024/02/26 16:20:40;;;;;;;2.58;1.67;;;;;;;;;;12376944;23;20504;-74
2024/02/26 16:25:44;;;;;;;2.90;1.65;;;;;;;;;;12368080;23;20028;-74
2024/02/26 16:30:48;;;;;;;2.70;1.53;;;;;;;;;;12374694;23;20028;-74
2024/02/26 16:35:52;;;;;;;3.65;1.83;;;;;;;;;;12375008;23;20032;-74
2024/02/26 16:40:57;;;;;;;1.83;1.40;;;;;;;;;;12374801;23;20028;-75
2024/02/26 16:46:01;;;;;;;2.10;1.50;;;;;;;;;;12367215;23;20111;-74
2024/02/26 16:51:05;;;;;;;2.03;1.83;;;;;;;;;;12365167;23;20028;-74
2024/02/26 16:56:11;;;;;;;1.98;1.50;;;;;;;;;;12367257;23;20103;-74
2024/02/26 17:01:14;;;;;;;2.35;1.92;;;;;;;;;;12366777;23;20123;-74
2024/02/26 17:06:23;;;;;;;5.03;1.90;;;;;;;;;;12388513;23;20027;-74
2024/02/26 17:11:30;;;;;;;2.05;1.40;;;;;;;;;;12364230;23;20092;-74
2024/02/26 17:16:36;;;;;;;4.07;1.80;;;;;;;;;;12452018;23;20108;-84
2024/02/26 17:21:39;;;;;;;2.03;1.40;;;;;;;;;;12461484;23;20083;-85
2024/02/26 17:26:44;;;;;;;2.08;1.60;;;;;;;;;;12457957;23;20090;-84
2024/02/26 17:31:48;;;;;;;3.15;1.85;;;;;;;;;;12467921;23;20027;-84
2024/02/26 17:36:53;;;;;;;4.55;2.75;;;;;;;;;;12462778;23;20219;-84
2024/02/26 17:41:58;;;;;;;5.10;3.15;;;;;;;;;;12463909;23;20031;-84
2024/02/26 17:47:01;;;;;;;3.25;2.15;;;;;;;;;;12464014;23;20510;-83
2024/02/26 17:52:06;;;;;;;2.42;2.00;;;;;;;;;;12467210;23;20031;-83
2024/02/26 17:57:10;;;;;;;2.33;1.58;;;;;;;;;;12475071;23;20427;-83
2024/02/26 18:02:14;;;;;;;1.97;1.30;;;;;;;;;;12475886;23;20094;-82
2024/02/26 18:07:18;;;;;;;1.83;1.60;;;;;;;;;;12477863;23;20094;-83
2024/02/26 18:12:24;;;;;;;2.22;1.90;;;;;;;;;;12476146;23;20027;-84
2024/02/26 18:17:28;;;;;;;3.38;2.53;;;;;;;;;;12469767;23;20027;-83
2024/02/26 18:22:31;;;;;;;5.50;4.20;;;;;;;;;;12459586;23;20023;-82
2024/02/26 18:27:37;;;;;;;4.13;3.50;;;;;;;;;;12473374;23;20031;-83
2024/02/26 18:32:41;;;;;;;4.18;2.45;;;;;;;;;;12476364;23;20034;-83
2024/02/26 18:37:44;;;;;;;3.00;2.25;;;;;;;;;;12476904;23;20030;-82
2024/02/26 18:42:48;;;;;;;2.00;1.70;;;;;;;;;;12477194;23;20060;-83
2024/02/26 18:47:52;;;;;;;1.90;1.70;;;;;;;;;;12477477;23;20019;-82
2024/02/26 18:53:01;;;;;;;2.92;2.00;;;;;;;;;;12478345;23;20104;-83
2024/02/26 18:58:59;;;;;;;2.85;1.92;;;;;;;;;;12480696;23;20015;-83
2024/02/26 19:04:12;;;;;;;2.08;1.77;;;;;;;;;;12474341;23;20412;-83
2024/02/26 19:09:16;;;;;;;2.97;2.30;;;;;;;;;;12477394;23;20031;-82
2024/02/26 19:14:21;;;;;;;3.40;2.17;;;;;;;;;;12490720;23;20360;-83
2024/02/26 19:19:25;;;;;;;4.28;2.50;;;;;;;;;;12474343;23;20034;-83
2024/02/26 19:24:28;;;;;;;4.28;2.67;;;;;;;;;;12475498;23;20031;-83
2024/02/26 19:29:33;;;;;;;3.15;2.33;;;;;;;;;;12477179;23;20043;-83
2024/02/26 19:34:37;;;;;;;4.45;2.95;;;;;;;;;;12479721;23;20043;-82
2024/02/26 19:39:41;;;;;;;8.15;4.25;;;;;;;;;;12476639;23;20075;-83
2024/02/26 19:44:46;;;;;;;8.07;5.20;;;;;;;;;;12476998;23;20027;-83
2024/02/26 19:49:50;;;;;;;6.15;4.10;;;;;;;;;;12487610;23;20027;-82
2024/02/26 19:54:53;;;;;;;5.43;3.50;;;;;;;;;;12475634;23;20551;-82
2024/02/26 19:59:58;;;;;;;5.20;3.25;;;;;;;;;;12474414;23;20038;-82
2024/02/26 20:05:01;;;;;;;3.53;2.42;;;;;;;;;;12474299;23;20053;-82
2024/02/26 20:10:05;;;;;;;4.40;2.80;;;;;;;;;;12474304;23;20030;-82
2024/02/26 20:15:10;;;;;;;4.95;3.28;;;;;;;;;;12479798;23;20624;-83
2024/02/26 20:20:16;;;;;;;4.00;2.78;;;;;;;;;;12471066;23;20688;-87
2024/02/26 20:25:23;;;;;;;3.75;2.80;;;;;;;;;;12473264;23;20034;-86
2024/02/26 20:30:30;;;;;;;3.17;2.47;;;;;;;;;;12475157;23;20028;-88
2024/02/26 20:35:34;;;;;;;4.13;3.00;;;;;;;;;;12476377;23;20896;-86
2024/02/26 20:40:37;;;;;;;4.20;2.72;;;;;;;;;;12478181;23;20388;-85
2024/02/26 20:45:48;;;;;;;4.10;3.10;;;;;;;;;;12477988;23;20034;-86
2024/02/26 20:50:54;;;;;;;4.00;2.85;;;;;;;;;;12474787;23;20399;-82
2024/02/26 20:55:57;;;;;;;4.50;2.65;;;;;;;;;;12466185;23;20066;-83
2024/02/26 21:01:06;;;;;;;3.47;2.85;;;;;;;;;;12468887;23;20114;-83
2024/02/26 21:06:12;;;;;;;3.58;2.63;;;;;;;;;;12471621;23;20034;-83
2024/02/26 21:11:16;;;;;;;3.47;2.78;;;;;;;;;;12471053;23;20031;-83
2024/02/26 21:16:22;;;;;;;4.55;3.25;;;;;;;;;;12470252;23;20341;-83
2024/02/26 21:21:28;;;;;;;3.60;3.00;;;;;;;;;;12469540;23;20067;-84
2024/02/26 21:26:34;;;;;;;4.40;3.13;;;;;;;;;;12468125;23;20829;-82
2024/02/26 21:31:42;;;;;;;5.43;3.40;;;;;;;;;;12469617;23;20404;-83
2024/02/26 21:36:45;;;;;;;4.80;3.40;;;;;;;;;;12491091;23;20031;-83
2024/02/26 21:41:55;;;;;;;5.00;3.55;;;;;;;;;;12467102;23;20075;-83
2024/02/26 21:47:02;;;;;;;5.15;3.60;;;;;;;;;;12467881;23;20027;-83
2024/02/26 21:52:06;;;;;;;6.38;4.22;;;;;;;;;;12463128;23;20023;-83
2024/02/26 21:57:10;;;;;;;6.38;4.40;;;;;;;;;;12464249;23;20042;-84
2024/02/26 22:02:15;;;;;;;7.72;4.43;;;;;;;;;;12465059;23;20075;-83
2024/02/26 22:07:19;;;;;;;8.52;6.45;;;;;;;;;;12468493;23;20467;-84
2024/02/26 22:12:22;;;;;;;10.57;8.18;;;;;;;;;;12468405;23;20019;-83
2024/02/26 22:17:28;;;;;;;7.80;5.80;;;;;;;;;;12468795;23;20037;-83
2024/02/26 22:22:31;;;;;;;9.05;6.05;;;;;;;;;;12470829;23;20022;-82
2024/02/26 22:27:34;;;;;;;8.57;6.30;;;;;;;;;;12491116;23;20027;-82
2024/02/26 22:32:39;;;;;;;6.93;5.20;;;;;;;;;;12467679;23;20493;-83
2024/02/26 22:37:43;;;;;;;7.30;5.20;;;;;;;;;;12467368;23;20023;-83
2024/02/26 22:42:46;;;;;;;11.07;8.13;;;;;;;;;;12467740;23;20039;-84
2024/02/26 22:47:51;;;;;;;8.20;6.07;;;;;;;;;;12466123;23;20493;-83
2024/02/26 22:52:55;;;;;;;7.15;5.47;;;;;;;;;;12469367;23;20835;-83
2024/02/26 22:57:58;;;;;;;9.25;6.53;;;;;;;;;;12488222;23;20026;-83
2024/02/26 23:03:04;;;;;;;11.32;7.07;;;;;;;;;;12470203;23;20027;-83
2024/02/26 23:08:07;;;;;;;13.95;9.80;;;;;;;;;;12471865;23;20407;-83
2024/02/26 23:13:11;;;;;;;11.15;8.23;;;;;;;;;;12490162;23;20081;-74
2024/02/26 23:18:16;;;;;;;12.80;8.85;;;;;;;;;;12505328;23;20027;-74
2024/02/26 23:23:19;;;;;;;11.27;8.52;;;;;;;;;;12486972;23;20451;-74
2024/02/26 23:28:23;;;;;;;12.27;9.57;;;;;;;;;;12502134;23;20095;-75
2024/02/26 23:33:27;;;;;;;12.80;9.35;;;;;;;;;;12485375;23;20030;-74
2024/02/26 23:38:31;;;;;;;11.15;7.25;;;;;;;;;;12483313;23;20027;-74
2024/02/26 23:43:34;;;;;;;11.23;7.88;;;;;;;;;;12484769;23;20133;-75
2024/02/26 23:48:39;;;;;;;16.88;11.38;;;;;;;;;;12482933;23;20448;-74
2024/02/26 23:53:42;;;;;;;12.52;8.70;;;;;;;;;;12482240;23;20400;-74
2024/02/26 23:58:46;;;;;;;11.50;7.95;;;;;;;;;;12499859;23;20020;-74
